createdAt,value
2018-09-27T00:00:20.358Z,98.70
2018-09-27T00:02:48.217Z,99.00
2018-09-27T00:05:16.271Z,99.40
2018-09-27T00:07:44.245Z,99.40
2018-09-27T00:10:12.141Z,98.80
2018-09-27T00:12:40.069Z,98.30
2018-09-27T00:15:07.985Z,98.30
2018-09-27T00:17:35.989Z,98.90
2018-09-27T00:20:03.955Z,98.60
2018-09-27T00:22:31.869Z,99.00
2018-09-27T00:24:59.830Z,99.00
2018-09-27T00:27:27.794Z,98.70
2018-09-27T00:29:56.513Z,98.80
2018-09-27T00:32:24.819Z,99.00
2018-09-27T00:34:52.745Z,98.30
2018-09-27T00:37:20.705Z,98.80
2018-09-27T00:39:48.649Z,98.30
2018-09-27T00:42:16.585Z,98.60
2018-09-27T00:44:44.497Z,98.60
2018-09-27T00:47:12.425Z,98.50
2018-09-27T00:49:40.325Z,98.60
2018-09-27T00:52:08.261Z,97.90
2018-09-27T00:54:36.457Z,98.20
2018-09-27T00:57:04.565Z,98.10
2018-09-27T00:59:32.578Z,98.10
2018-09-27T01:02:01.386Z,98.90
2018-09-27T01:04:29.597Z,98.80
2018-09-27T01:06:57.685Z,99.10
2018-09-27T01:09:25.825Z,98.80
2018-09-27T01:11:53.919Z,98.70
2018-09-27T01:14:22.038Z,99.10
2018-09-27T01:16:51.058Z,99.30
2018-09-27T01:19:19.152Z,99.20
2018-09-27T01:21:47.395Z,99.60
2018-09-27T01:24:15.572Z,99.10
2018-09-27T01:26:43.702Z,99.30
2018-09-27T01:29:11.825Z,99.00
2018-09-27T01:31:40.710Z,99.20
2018-09-27T01:34:08.912Z,99.70
2018-09-27T01:36:37.093Z,99.50
2018-09-27T01:39:06.165Z,99.70
2018-09-27T01:41:34.513Z,99.50
2018-09-27T01:44:02.738Z,99.70
2018-09-27T01:46:30.830Z,99.20
2018-09-27T01:48:59.005Z,99.50
2018-09-27T01:51:26.999Z,99.90
2018-09-27T01:53:55.721Z,99.70
2018-09-27T01:56:23.815Z,99.50
2018-09-27T01:58:52.044Z,99.60
2018-09-27T02:01:20.147Z,99.60
2018-09-27T02:03:48.292Z,99.90
2018-09-27T02:06:16.445Z,99.90
2018-09-27T02:08:45.649Z,99.90
2018-09-27T02:11:14.609Z,99.90
2018-09-27T02:13:42.800Z,99.90
2018-09-27T02:16:10.864Z,99.90
2018-09-27T02:18:38.994Z,99.90
2018-09-27T02:21:07.173Z,99.90
2018-09-27T02:23:35.549Z,99.90
2018-09-27T02:26:03.831Z,99.80
2018-09-27T02:28:32.249Z,99.90
2018-09-27T02:31:00.866Z,99.90
2018-09-27T02:33:28.963Z,99.90
2018-09-27T02:35:57.241Z,99.90
2018-09-27T02:38:25.444Z,99.90
2018-09-27T02:40:53.532Z,99.90
2018-09-27T02:43:22.500Z,99.80
2018-09-27T02:45:51.094Z,99.40
2018-09-27T02:48:19.178Z,99.30
2018-09-27T02:50:47.653Z,99.50
2018-09-27T02:53:15.806Z,98.80
2018-09-27T02:55:43.965Z,99.60
2018-09-27T02:58:12.189Z,99.50
2018-09-27T03:00:40.342Z,99.70
2018-09-27T03:03:08.809Z,99.70
2018-09-27T03:05:37.008Z,99.70
2018-09-27T03:08:05.148Z,99.90
2018-09-27T03:10:33.353Z,99.90
2018-09-27T03:13:01.579Z,99.70
2018-09-27T03:15:29.717Z,99.80
2018-09-27T03:17:57.859Z,99.90
2018-09-27T03:20:25.993Z,99.70
2018-09-27T03:22:54.150Z,99.60
2018-09-27T03:25:22.182Z,99.80
2018-09-27T03:27:50.292Z,99.80
2018-09-27T03:30:18.507Z,99.60
2018-09-27T03:32:46.711Z,99.60
2018-09-27T03:35:14.790Z,99.90
2018-09-27T03:37:42.899Z,99.90
2018-09-27T03:40:12.044Z,99.90
2018-09-27T03:42:40.181Z,99.90
2018-09-27T03:45:08.252Z,99.90
2018-09-27T03:47:36.644Z,99.90
2018-09-27T03:50:04.853Z,99.90
2018-09-27T03:52:33.759Z,99.90
2018-09-27T03:55:01.879Z,99.90
2018-09-27T03:57:30.118Z,99.90
2018-09-27T03:59:58.189Z,99.90
2018-09-27T04:02:26.440Z,99.90
2018-09-27T04:04:54.651Z,99.90
2018-09-27T04:07:22.759Z,99.90
2018-09-27T04:09:50.897Z,99.90
2018-09-27T04:12:19.053Z,99.90
2018-09-27T04:14:47.021Z,99.90
2018-09-27T04:17:15.113Z,99.90
2018-09-27T04:19:43.374Z,99.90
2018-09-27T04:22:11.546Z,99.90
2018-09-27T04:24:39.690Z,99.90
2018-09-27T04:27:07.917Z,99.90
2018-09-27T04:29:36.041Z,99.90
2018-09-27T04:32:04.090Z,99.90
2018-09-27T04:34:32.217Z,99.90
2018-09-27T04:37:00.292Z,99.90
2018-09-27T04:39:29.513Z,99.90
2018-09-27T04:41:57.625Z,99.90
2018-09-27T04:44:25.669Z,99.90
2018-09-27T04:46:53.867Z,99.90
2018-09-27T04:49:22.157Z,99.90
2018-09-27T04:51:50.223Z,99.90
2018-09-27T04:54:18.340Z,99.90
2018-09-27T04:56:46.363Z,99.90
2018-09-27T04:59:14.554Z,99.90
2018-09-27T05:01:42.602Z,99.90
2018-09-27T05:04:10.700Z,99.90
2018-09-27T05:06:38.718Z,99.90
2018-09-27T05:09:07.525Z,99.90
2018-09-27T05:11:35.590Z,99.90
2018-09-27T05:14:03.818Z,99.90
2018-09-27T05:16:31.865Z,99.90
2018-09-27T05:19:00.054Z,99.90
2018-09-27T05:21:28.997Z,99.90
2018-09-27T05:23:57.059Z,99.90
2018-09-27T05:26:25.444Z,99.90
2018-09-27T05:28:53.601Z,99.90
2018-09-27T05:31:21.660Z,99.90
2018-09-27T05:33:49.806Z,99.90
2018-09-27T05:36:17.925Z,99.90
2018-09-27T05:38:45.986Z,99.90
2018-09-27T05:41:14.095Z,99.90
2018-09-27T05:43:42.217Z,99.90
2018-09-27T05:46:10.442Z,99.90
2018-09-27T05:48:38.663Z,99.90
2018-09-27T05:51:06.745Z,99.90
2018-09-27T05:53:34.843Z,99.90
2018-09-27T05:56:03.040Z,99.90
2018-09-27T05:58:31.052Z,99.90
2018-09-27T06:00:59.245Z,99.90
2018-09-27T06:03:27.306Z,99.90
2018-09-27T06:05:55.434Z,99.90
2018-09-27T06:08:23.486Z,99.90
2018-09-27T06:10:51.688Z,99.90
2018-09-27T06:13:19.668Z,99.90
2018-09-27T06:15:47.702Z,99.90
2018-09-27T06:18:15.762Z,99.60
2018-09-27T06:20:43.815Z,99.30
2018-09-27T06:23:11.930Z,99.10
2018-09-27T06:25:39.926Z,99.20
2018-09-27T06:28:07.920Z,99.10
2018-09-27T06:30:36.044Z,99.00
2018-09-27T06:33:04.395Z,99.30
2018-09-27T06:35:32.462Z,99.10
2018-09-27T06:38:00.581Z,99.20
2018-09-27T06:40:28.740Z,99.30
2018-09-27T06:42:56.962Z,98.90
2018-09-27T06:45:24.999Z,99.00
2018-09-27T06:47:53.649Z,99.00
2018-09-27T06:50:21.746Z,99.10
2018-09-27T06:52:50.289Z,98.50
2018-09-27T06:55:18.638Z,98.70
2018-09-27T06:57:46.683Z,98.80
2018-09-27T07:00:14.675Z,98.40
2018-09-27T07:02:42.812Z,98.80
2018-09-27T07:05:10.978Z,98.40
2018-09-27T07:07:39.043Z,98.50
2018-09-27T07:10:07.118Z,98.70
2018-09-27T07:12:35.249Z,98.70
2018-09-27T07:15:03.292Z,98.70
2018-09-27T07:17:31.266Z,98.60
2018-09-27T07:19:59.350Z,98.80
2018-09-27T07:22:27.496Z,98.30
2018-09-27T07:24:55.555Z,98.00
2018-09-27T07:27:23.738Z,98.70
2018-09-27T07:29:51.936Z,98.10
2018-09-27T07:32:19.986Z,98.00
2018-09-27T07:34:48.090Z,97.40
2018-09-27T07:37:16.645Z,97.50
2018-09-27T07:39:46.042Z,97.50
2018-09-27T07:42:14.162Z,96.70
2018-09-27T07:44:42.286Z,97.10
2018-09-27T07:47:11.586Z,96.60
2018-09-27T07:49:39.679Z,96.70
2018-09-27T07:52:07.838Z,96.60
2018-09-27T07:54:36.824Z,95.50
2018-09-27T07:57:04.859Z,95.80
2018-09-27T07:59:32.894Z,96.50
2018-09-27T08:02:02.052Z,95.50
2018-09-27T08:04:30.336Z,95.60
2018-09-27T08:06:58.618Z,95.40
2018-09-27T08:09:27.386Z,95.70
2018-09-27T08:11:55.595Z,95.80
2018-09-27T08:14:23.558Z,95.10
2018-09-27T08:16:51.645Z,95.00
2018-09-27T08:19:19.703Z,94.80
2018-09-27T08:21:47.911Z,94.00
2018-09-27T08:24:16.039Z,94.10
2018-09-27T08:26:44.210Z,93.70
2018-09-27T08:29:12.338Z,93.50
2018-09-27T08:31:40.446Z,93.10
2018-09-27T08:34:09.717Z,94.00
2018-09-27T08:36:37.777Z,93.50
2018-09-27T08:39:07.635Z,93.90
2018-09-27T08:41:35.886Z,93.90
2018-09-27T08:44:04.100Z,93.50
2018-09-27T08:46:32.269Z,93.70
2018-09-27T08:49:00.319Z,93.20
2018-09-27T08:51:28.593Z,92.80
2018-09-27T08:53:56.762Z,94.00
2018-09-27T08:56:25.814Z,93.10
2018-09-27T08:58:54.102Z,93.30
2018-09-27T09:01:22.312Z,93.20
2018-09-27T09:03:50.478Z,93.60
2018-09-27T09:06:18.550Z,93.40
2018-09-27T09:08:46.821Z,93.90
2018-09-27T09:11:15.059Z,92.60
2018-09-27T09:13:44.072Z,92.70
2018-09-27T09:16:12.163Z,93.60
2018-09-27T09:18:40.238Z,92.30
2018-09-27T09:21:09.302Z,92.40
2018-09-27T09:23:37.826Z,91.50
2018-09-27T09:26:06.055Z,92.90
2018-09-27T09:28:34.308Z,92.20
2018-09-27T09:31:02.331Z,92.30
2018-09-27T09:33:30.500Z,92.20
2018-09-27T09:35:58.696Z,93.30
2018-09-27T09:38:26.850Z,92.60
2018-09-27T09:40:55.674Z,92.10
2018-09-27T09:43:23.737Z,93.40
2018-09-27T09:45:51.916Z,91.70
2018-09-27T09:48:20.954Z,92.10
2018-09-27T09:50:49.232Z,92.40
2018-09-27T09:53:17.393Z,92.50
2018-09-27T09:55:45.534Z,92.70
2018-09-27T09:58:13.780Z,92.40
2018-09-27T10:00:41.949Z,91.90
2018-09-27T10:03:10.046Z,91.90
2018-09-27T10:05:38.270Z,91.90
2018-09-27T10:08:06.341Z,91.80
2018-09-27T10:10:35.428Z,92.00
2018-09-27T10:13:03.726Z,91.90
2018-09-27T10:15:31.917Z,92.40
2018-09-27T10:18:00.264Z,92.60
2018-09-27T10:20:28.414Z,91.20
2018-09-27T10:22:56.450Z,91.80
2018-09-27T10:25:24.632Z,92.00
2018-09-27T10:27:52.677Z,91.80
2018-09-27T10:30:21.193Z,90.70
2018-09-27T10:32:49.542Z,92.20
2018-09-27T10:35:17.726Z,92.30
2018-09-27T10:37:45.906Z,92.40
2018-09-27T10:40:14.175Z,91.20
2018-09-27T10:42:42.434Z,91.90
2018-09-27T10:45:10.506Z,91.90
2018-09-27T10:47:38.592Z,92.50
2018-09-27T10:50:06.892Z,91.60
2018-09-27T10:52:34.933Z,91.90
2018-09-27T10:55:03.011Z,92.00
2018-09-27T10:57:31.158Z,92.60
2018-09-27T10:59:59.493Z,93.10
2018-09-27T11:02:27.646Z,92.50
2018-09-27T11:04:55.758Z,91.00
2018-09-27T11:07:23.999Z,91.80
2018-09-27T11:09:52.138Z,91.60
2018-09-27T11:12:20.200Z,92.20
2018-09-27T11:14:48.331Z,92.30
2018-09-27T11:17:16.391Z,91.70
2018-09-27T11:19:44.629Z,91.50
2018-09-27T11:22:12.739Z,91.90
2018-09-27T11:24:40.819Z,92.60
2018-09-27T11:27:09.510Z,91.70
2018-09-27T11:29:42.847Z,92.50
2018-09-27T11:32:16.087Z,92.30
2018-09-27T11:34:44.134Z,92.80
2018-09-27T11:37:12.274Z,92.90
2018-09-27T11:39:41.313Z,92.60
2018-09-27T11:42:09.482Z,93.10
2018-09-27T11:44:37.586Z,93.00
2018-09-27T11:47:05.873Z,92.30
2018-09-27T11:49:33.955Z,92.00
2018-09-27T11:52:02.126Z,92.60
2018-09-27T11:54:30.370Z,91.90
2018-09-27T11:56:58.506Z,93.00
2018-09-27T11:59:26.764Z,93.20
2018-09-27T12:01:55.004Z,91.70
2018-09-27T12:04:23.050Z,93.20
2018-09-27T12:06:51.154Z,92.80
2018-09-27T12:09:19.246Z,93.20
2018-09-27T12:11:47.330Z,92.60
2018-09-27T12:14:15.791Z,92.20
2018-09-27T12:16:44.063Z,92.90
2018-09-27T12:19:12.079Z,93.60
2018-09-27T12:21:40.172Z,94.10
2018-09-27T12:24:08.958Z,92.80
2018-09-27T12:26:36.986Z,93.10
2018-09-27T12:29:05.127Z,93.40
2018-09-27T12:31:34.075Z,93.30
2018-09-27T12:34:02.299Z,93.50
2018-09-27T12:36:30.537Z,93.20
2018-09-27T12:38:59.313Z,93.20
2018-09-27T12:41:27.789Z,92.90
2018-09-27T12:43:57.013Z,93.80
2018-09-27T12:46:25.155Z,93.80
2018-09-27T12:48:53.996Z,94.00
2018-09-27T12:51:22.182Z,93.70
2018-09-27T12:53:50.160Z,93.30
2018-09-27T12:56:21.669Z,94.10
2018-09-27T12:58:51.134Z,93.50
2018-09-27T13:01:19.186Z,94.00
2018-09-27T13:03:47.423Z,93.90
2018-09-27T13:06:16.748Z,94.10
2018-09-27T13:08:45.392Z,94.80
2018-09-27T13:11:13.463Z,94.50
2018-09-27T13:13:41.537Z,95.00
2018-09-27T13:16:09.746Z,95.10
2018-09-27T13:18:40.281Z,94.60
2018-09-27T13:21:08.552Z,94.90
2018-09-27T13:23:36.699Z,93.80
2018-09-27T13:26:04.849Z,94.90
2018-09-27T13:28:33.014Z,94.90
2018-09-27T13:31:01.171Z,94.90
2018-09-27T13:33:29.382Z,94.70
2018-09-27T13:35:57.700Z,95.20
2018-09-27T13:38:25.952Z,94.80
2018-09-27T13:40:54.124Z,94.80
2018-09-27T13:43:22.263Z,95.30
2018-09-27T13:45:50.382Z,95.40
2018-09-27T13:48:18.630Z,95.50
2018-09-27T13:50:46.991Z,95.70
2018-09-27T13:53:15.075Z,95.50
2018-09-27T13:55:43.085Z,95.70
2018-09-27T13:58:11.145Z,96.00
2018-09-27T14:00:39.234Z,95.90
2018-09-27T14:03:08.175Z,96.30
2018-09-27T14:05:36.463Z,96.00
2018-09-27T14:08:04.515Z,95.90
2018-09-27T14:10:32.671Z,96.10
2018-09-27T14:13:00.777Z,96.50
2018-09-27T14:15:28.919Z,96.60
2018-09-27T14:17:57.055Z,96.50
2018-09-27T14:20:25.103Z,96.80
2018-09-27T14:22:53.533Z,96.80
2018-09-27T14:25:21.645Z,96.80
2018-09-27T14:27:49.920Z,96.80
2018-09-27T14:30:17.951Z,97.10
2018-09-27T14:32:46.324Z,97.20
2018-09-27T14:35:14.561Z,97.30
2018-09-27T14:37:43.606Z,97.20
2018-09-27T14:40:11.838Z,97.30
2018-09-27T14:42:40.097Z,97.30
2018-09-27T14:45:08.162Z,96.90
2018-09-27T14:47:36.427Z,96.80
2018-09-27T14:50:04.875Z,97.00
2018-09-27T14:52:33.061Z,96.20
2018-09-27T14:55:01.825Z,96.10
2018-09-27T14:57:29.874Z,96.30
2018-09-27T14:59:58.061Z,95.70
2018-09-27T15:02:26.265Z,95.10
2018-09-27T15:04:54.348Z,95.70
2018-09-27T15:07:22.494Z,95.70
2018-09-27T15:09:50.714Z,95.80
2018-09-27T15:12:18.864Z,96.10
2018-09-27T15:14:47.060Z,95.70
2018-09-27T15:17:15.238Z,95.80
2018-09-27T15:19:43.867Z,97.10
2018-09-27T15:22:11.980Z,96.70
2018-09-27T15:24:40.093Z,97.40
2018-09-27T15:27:08.243Z,97.60
2018-09-27T15:29:36.302Z,97.80
2018-09-27T15:32:04.517Z,98.30
2018-09-27T15:34:34.416Z,99.10
2018-09-27T15:37:03.841Z,99.60
2018-09-27T15:39:34.411Z,99.80
2018-09-27T15:42:04.068Z,99.90
2018-09-27T15:44:32.231Z,99.90
2018-09-27T15:47:01.323Z,99.90
2018-09-27T15:49:29.551Z,99.90
2018-09-27T15:51:57.527Z,99.90
2018-09-27T15:54:25.837Z,99.90
2018-09-27T15:56:53.980Z,99.90
2018-09-27T15:59:22.151Z,99.90
2018-09-27T16:01:50.299Z,99.90
2018-09-27T16:04:18.904Z,99.90
2018-09-27T16:06:47.128Z,99.90
2018-09-27T16:09:16.318Z,99.90
2018-09-27T16:11:44.456Z,99.90
2018-09-27T16:14:12.534Z,99.90
2018-09-27T16:16:40.902Z,99.90
2018-09-27T16:19:09.324Z,99.90
2018-09-27T16:21:37.460Z,99.90
2018-09-27T16:24:05.751Z,99.90
2018-09-27T16:26:34.803Z,99.90
2018-09-27T16:29:03.280Z,99.90
2018-09-27T16:31:32.418Z,99.90
2018-09-27T16:34:01.202Z,99.90
2018-09-27T16:36:29.347Z,99.90
2018-09-27T16:38:57.436Z,99.90
2018-09-27T16:41:26.345Z,99.90
2018-09-27T16:43:55.918Z,99.90
2018-09-27T16:46:24.146Z,99.90
2018-09-27T16:48:53.052Z,99.90
2018-09-27T16:51:21.131Z,99.90
2018-09-27T16:53:49.390Z,99.90
2018-09-27T16:56:18.518Z,99.90
2018-09-27T16:58:46.845Z,99.90
2018-09-27T17:01:17.422Z,99.90
2018-09-27T17:03:45.769Z,99.90
2018-09-27T17:06:15.065Z,99.90
2018-09-27T17:08:43.204Z,99.90
2018-09-27T17:11:11.371Z,99.90
2018-09-27T17:13:40.021Z,99.90
2018-09-27T17:16:08.136Z,99.90
2018-09-27T17:18:36.639Z,99.90
2018-09-27T17:21:04.726Z,99.90
2018-09-27T17:23:33.695Z,99.90
2018-09-27T17:26:02.410Z,99.90
2018-09-27T17:28:30.497Z,99.90
2018-09-27T17:30:58.552Z,99.90
2018-09-27T17:33:27.730Z,99.90
2018-09-27T17:35:55.917Z,99.90
2018-09-27T17:38:24.082Z,99.90
2018-09-27T17:40:52.271Z,99.90
2018-09-27T17:43:20.455Z,99.90
2018-09-27T17:45:48.894Z,99.90
2018-09-27T17:48:17.026Z,99.90
2018-09-27T17:50:45.504Z,99.90
2018-09-27T17:53:14.760Z,99.90
2018-09-27T17:55:43.722Z,99.90
2018-09-27T17:58:12.823Z,99.90
2018-09-27T18:00:40.903Z,99.90
2018-09-27T18:03:09.066Z,99.90
2018-09-27T18:05:37.083Z,99.90
2018-09-27T18:08:05.593Z,99.90
2018-09-27T18:10:33.899Z,99.90
2018-09-27T18:13:02.407Z,99.90
2018-09-27T18:15:31.495Z,99.90
2018-09-27T18:17:59.782Z,99.90
2018-09-27T18:20:27.816Z,99.90
2018-09-27T18:22:58.377Z,99.90
2018-09-27T18:25:26.435Z,99.90
2018-09-27T18:27:55.484Z,99.90
2018-09-27T18:30:23.659Z,99.90
2018-09-27T18:32:51.762Z,99.90
2018-09-27T18:35:19.871Z,99.90
2018-09-27T18:37:49.187Z,99.90
2018-09-27T18:40:17.486Z,99.90
2018-09-27T18:42:45.493Z,99.90
2018-09-27T18:45:13.945Z,99.90
2018-09-27T18:47:42.019Z,99.90
2018-09-27T18:50:10.662Z,99.90
2018-09-27T18:52:39.035Z,99.90
2018-09-27T18:55:07.451Z,99.90
2018-09-27T18:57:35.491Z,99.90
2018-09-27T19:00:03.821Z,99.90
2018-09-27T19:02:32.664Z,99.90
2018-09-27T19:05:00.766Z,99.90
2018-09-27T19:07:28.890Z,99.90
2018-09-27T19:09:56.994Z,99.90
2018-09-27T19:12:25.099Z,99.90
2018-09-27T19:14:53.253Z,99.90
2018-09-27T19:17:21.594Z,99.90
2018-09-27T19:19:49.722Z,99.90
2018-09-27T19:22:18.935Z,99.90
2018-09-27T19:24:47.158Z,99.90
2018-09-27T19:27:15.284Z,99.90
2018-09-27T19:29:43.311Z,99.90
2018-09-27T19:32:11.397Z,99.90
2018-09-27T19:34:39.502Z,99.90
2018-09-27T19:37:08.073Z,99.90
2018-09-27T19:39:36.081Z,99.90
2018-09-27T19:42:04.987Z,99.90
2018-09-27T19:44:33.135Z,99.90
2018-09-27T19:47:01.298Z,99.90
2018-09-27T19:49:29.850Z,99.90
2018-09-27T19:51:58.013Z,99.90
2018-09-27T19:54:26.055Z,99.90
2018-09-27T19:56:54.364Z,99.90
2018-09-27T19:59:22.577Z,99.90
2018-09-27T20:01:50.670Z,99.90
2018-09-27T20:04:18.848Z,99.90
2018-09-27T20:06:46.942Z,99.90
2018-09-27T20:09:15.516Z,99.90
2018-09-27T20:11:43.964Z,99.90
2018-09-27T20:14:12.466Z,99.90
2018-09-27T20:16:41.239Z,99.90
2018-09-27T20:19:09.762Z,99.90
2018-09-27T20:21:38.386Z,99.90
2018-09-27T20:24:06.642Z,99.90
2018-09-27T20:26:34.828Z,99.90
2018-09-27T20:29:03.030Z,99.90
2018-09-27T20:31:31.102Z,99.90
2018-09-27T20:33:59.179Z,99.90
2018-09-27T20:36:27.564Z,99.90
2018-09-27T20:38:55.638Z,99.90
2018-09-27T20:41:24.113Z,99.90
2018-09-27T20:43:52.193Z,99.90
2018-09-27T20:46:20.610Z,99.90
2018-09-27T20:48:50.652Z,99.90
2018-09-27T20:51:18.729Z,99.90
2018-09-27T20:53:46.847Z,99.90
2018-09-27T20:56:15.131Z,99.90
2018-09-27T20:58:43.350Z,99.90
2018-09-27T21:01:11.854Z,99.90
2018-09-27T21:03:40.606Z,99.90
2018-09-27T21:06:08.971Z,99.90
2018-09-27T21:08:37.239Z,99.90
2018-09-27T21:11:06.174Z,99.90
2018-09-27T21:13:35.343Z,99.90
2018-09-27T21:16:03.519Z,99.90
2018-09-27T21:18:31.786Z,99.90
2018-09-27T21:21:01.027Z,99.90
2018-09-27T21:23:29.146Z,99.90
2018-09-27T21:25:57.226Z,99.90
2018-09-27T21:28:26.167Z,99.90
2018-09-27T21:30:55.440Z,99.90
2018-09-27T21:33:23.693Z,99.90
2018-09-27T21:35:51.884Z,99.90
2018-09-27T21:38:20.287Z,99.90
2018-09-27T21:40:48.474Z,99.90
2018-09-27T21:43:16.607Z,99.90
2018-09-27T21:45:44.728Z,99.90
2018-09-27T21:48:12.803Z,99.90
2018-09-27T21:50:41.050Z,99.90
2018-09-27T21:53:09.490Z,99.90
2018-09-27T21:55:37.522Z,99.90
2018-09-27T21:58:06.048Z,99.90
2018-09-27T22:00:34.090Z,99.90
2018-09-27T22:03:02.293Z,99.90
2018-09-27T22:05:30.503Z,99.90
2018-09-27T22:07:58.669Z,99.90
2018-09-27T22:10:26.778Z,99.90
2018-09-27T22:12:54.925Z,99.90
2018-09-27T22:15:23.181Z,99.90
2018-09-27T22:17:51.241Z,99.90
2018-09-27T22:20:19.415Z,99.90
2018-09-27T22:22:47.414Z,99.90
2018-09-27T22:25:15.548Z,99.90
2018-09-27T22:27:43.764Z,99.90
2018-09-27T22:30:11.956Z,99.90
2018-09-27T22:32:40.053Z,99.90
2018-09-27T22:35:08.371Z,99.90
2018-09-27T22:37:36.460Z,99.90
2018-09-27T22:40:05.323Z,99.90
2018-09-27T22:42:33.401Z,99.90
2018-09-27T22:45:01.490Z,99.90
2018-09-27T22:47:29.642Z,99.90
2018-09-27T22:49:57.845Z,99.90
2018-09-27T22:52:25.883Z,99.90
2018-09-27T22:54:54.741Z,99.90
2018-09-27T22:57:22.932Z,99.90
2018-09-27T22:59:51.029Z,99.90
2018-09-27T23:02:20.317Z,99.90
2018-09-27T23:04:48.530Z,99.90
2018-09-27T23:07:16.698Z,99.90
2018-09-27T23:09:44.779Z,99.90
2018-09-27T23:12:12.934Z,99.90
2018-09-27T23:14:41.187Z,99.90
2018-09-27T23:17:09.327Z,99.90
2018-09-27T23:19:37.654Z,99.90
2018-09-27T23:22:06.462Z,99.90
2018-09-27T23:24:34.687Z,99.90
2018-09-27T23:27:02.827Z,99.90
2018-09-27T23:29:30.901Z,99.90
2018-09-27T23:31:58.900Z,99.90
2018-09-27T23:34:27.181Z,99.90
2018-09-27T23:36:55.317Z,99.90
2018-09-27T23:39:23.464Z,99.90
2018-09-27T23:41:52.424Z,99.90
2018-09-27T23:44:20.623Z,99.90
2018-09-27T23:46:48.660Z,99.90
2018-09-27T23:49:17.648Z,99.90
2018-09-27T23:51:45.872Z,99.90
2018-09-27T23:54:13.942Z,99.90
2018-09-27T23:56:42.155Z,99.90
2018-09-27T23:59:10.386Z,99.90
